Time;durP1;ratioP1;P1;durP2;ratioP2;P2;SDS_P1;SDS_P2;PMS_P1;PMS_P2;Temp;Humidity;BMP_temperature;BMP_pressure;BME280_temperature;BME280_humidity;BME280_pressure;Samples;Min_cycle;Max_cycle;Signal;HPM_P1;HPM_P2
2022/11/21 00:00:05;;;;;;;217.30;113.50;;;;;;;-1.45;84.84;98064.38;86552;1284;25270;-72
2022/11/21 00:02:26;;;;;;;208.60;112.40;;;;;;;-1.47;84.82;98070.10;86469;1286;25287;-71
2022/11/21 00:04:30;;;;;;;222.10;110.10;;;;;;;-1.50;84.96;98072.73;86434;1286;99600;-72
2022/11/21 00:06:31;;;;;;;207.10;106.30;;;;;;;-1.56;84.77;98071.77;86693;1284;22684;-71
2022/11/21 00:08:32;;;;;;;209.20;113.20;;;;;;;-1.60;84.68;98072.34;86534;1287;23408;-74
2022/11/21 00:10:35;;;;;;;215.30;115.80;;;;;;;-1.65;84.67;98075.52;86766;1283;99493;-71
2022/11/21 00:12:36;;;;;;;229.00;115.00;;;;;;;-1.69;84.84;98067.63;87054;1283;22506;-72
2022/11/21 00:14:37;;;;;;;217.90;115.20;;;;;;;-1.70;84.77;98067.48;86814;1290;24286;-72
2022/11/21 00:16:38;;;;;;;217.40;117.60;;;;;;;-1.73;84.80;98058.05;86639;1283;100121;-71
2022/11/21 00:18:41;;;;;;;235.50;117.20;;;;;;;-1.71;84.93;98060.10;86642;1280;22502;-71
2022/11/21 00:20:43;;;;;;;207.00;110.30;;;;;;;-1.75;84.71;98061.18;86425;1280;25912;-70
2022/11/21 00:22:44;;;;;;;215.70;114.10;;;;;;;-1.82;84.63;98062.14;86148;1287;100133;-71
2022/11/21 00:24:45;;;;;;;;;;;;;;;-1.86;84.59;98061.52;86347;1287;25916;-71
2022/11/21 00:26:47;;;;;;;220.60;120.50;;;;;;;-1.93;84.73;98059.17;86504;1283;22624;-71
2022/11/21 00:28:48;;;;;;;218.30;116.90;;;;;;;-1.95;84.66;98060.91;86443;1281;100345;-72
2022/11/21 00:30:49;;;;;;;241.60;123.50;;;;;;;-1.96;84.79;98056.97;86326;1288;25383;-70
2022/11/21 00:32:50;;;;;;;237.70;124.80;;;;;;;-1.96;84.83;98053.88;86132;1286;22505;-72
2022/11/21 00:34:51;;;;;;;240.30;124.80;;;;;;;-1.93;84.89;98048.16;86190;1280;100309;-71
2022/11/21 00:36:52;;;;;;;242.80;124.70;;;;;;;-1.92;84.87;98046.77;86375;1284;22536;-70
2022/11/21 00:38:53;;;;;;;235.70;126.00;;;;;;;-1.91;84.91;98043.83;86423;1283;22522;-70
2022/11/21 00:40:54;;;;;;;232.40;123.90;;;;;;;-1.91;84.93;98046.24;86274;1280;99519;-72
2022/11/21 00:42:55;;;;;;;;;;;;;;;-1.91;85.03;98045.38;86246;1286;22596;-69
2022/11/21 00:44:58;;;;;;;229.50;117.90;;;;;;;-1.93;84.87;98043.86;86514;1284;25262;-72
2022/11/21 00:46:59;;;;;;;237.90;124.10;;;;;;;-1.97;84.89;98044.60;86204;1288;99769;-71
2022/11/21 00:49:00;;;;;;;222.80;120.00;;;;;;;-1.98;84.81;98047.36;86391;1283;23230;-72
2022/11/21 00:51:02;;;;;;;227.00;124.90;;;;;;;-1.98;84.87;98047.54;86216;1287;22485;-70
2022/11/21 00:53:03;;;;;;;236.30;119.40;;;;;;;-1.97;84.90;98049.24;86408;1283;99500;-69
2022/11/21 00:55:04;;;;;;;223.60;118.10;;;;;;;-1.99;84.91;98051.50;86472;1287;22587;-71
2022/11/21 00:57:06;;;;;;;222.60;117.90;;;;;;;-2.01;84.73;98048.44;86358;1288;22487;-70
2022/11/21 00:59:07;;;;;;;234.40;123.50;;;;;;;-2.02;84.79;98045.52;86485;1294;99736;-71
2022/11/21 01:01:11;;;;;;;238.60;117.00;;;;;;;-2.00;84.91;98041.36;86310;1280;22479;-72
2022/11/21 01:03:12;;;;;;;230.80;118.40;;;;;;;-1.99;84.85;98042.56;86789;1287;23070;-72
2022/11/21 01:05:13;;;;;;;233.40;121.50;;;;;;;-1.99;84.84;98037.40;86213;1294;99528;-72
2022/11/21 01:07:14;;;;;;;242.20;119.90;;;;;;;-1.97;84.92;98032.21;86211;1285;22632;-71
2022/11/21 01:09:18;;;;;;;222.60;116.80;;;;;;;-1.97;84.91;98029.80;86515;1292;22590;-70
2022/11/21 01:11:20;;;;;;;228.40;118.90;;;;;;;-1.99;84.72;98023.80;86460;1283;99509;-70
2022/11/21 01:13:21;;;;;;;234.70;124.00;;;;;;;-2.02;84.97;98023.84;86540;1284;24960;-72
2022/11/21 01:15:22;;;;;;;241.40;120.20;;;;;;;-2.02;84.92;98020.05;86617;1283;22500;-71
2022/11/21 01:17:23;;;;;;;;;;;;;;;-2.03;84.78;98019.20;86201;1290;100074;-71
2022/11/21 01:19:24;;;;;;;234.80;124.90;;;;;;;-2.07;84.94;98017.69;86499;1284;22487;-73
2022/11/21 01:21:27;;;;;;;249.00;128.80;;;;;;;-2.09;84.95;98019.78;86366;1286;22528;-71
2022/11/21 01:23:29;;;;;;;262.80;135.80;;;;;;;-2.12;84.83;98017.94;86418;1287;99651;-72
2022/11/21 01:25:33;;;;;;;274.70;139.30;;;;;;;-2.13;84.77;98021.38;86480;1284;24327;-72
2022/11/21 01:27:35;;;;;;;271.80;143.30;;;;;;;-2.14;84.73;98021.23;86773;1280;22727;-71
2022/11/21 01:29:36;;;;;;;267.60;143.40;;;;;;;-2.16;84.85;98016.79;86200;1285;99514;-70
2022/11/21 01:31:38;;;;;;;265.20;142.80;;;;;;;-2.19;84.83;98017.17;86401;1280;25567;-71
2022/11/21 01:33:39;;;;;;;271.60;143.30;;;;;;;-2.25;84.80;98019.98;86195;1286;22660;-71
2022/11/21 01:35:40;;;;;;;280.30;146.00;;;;;;;-2.26;84.84;98011.06;86390;1285;100095;-71
2022/11/21 01:37:41;;;;;;;268.80;145.10;;;;;;;-2.25;84.78;98009.66;86334;1284;22676;-70
2022/11/21 01:39:43;;;;;;;262.60;141.50;;;;;;;-2.24;84.82;98011.89;86368;1287;22926;-70
2022/11/21 01:41:44;;;;;;;262.40;135.30;;;;;;;-2.26;84.93;98009.85;86395;1283;99639;-71
2022/11/21 01:43:46;;;;;;;259.40;136.10;;;;;;;-2.28;84.91;98008.16;86279;1286;22511;-71
2022/11/21 01:45:55;;;;;;;251.20;133.70;;;;;;;-2.29;84.79;98014.19;86302;1286;22477;-71
2022/11/21 01:47:57;;;;;;;245.40;131.30;;;;;;;-2.31;84.91;98017.66;86570;1281;22606;-71
2022/11/21 01:49:58;;;;;;;246.60;132.70;;;;;;;-2.36;84.65;98028.90;86443;1283;22663;-72
2022/11/21 01:52:05;;;;;;;261.80;138.90;;;;;;;-2.43;84.56;98031.20;86250;1288;99644;-72
2022/11/21 01:54:13;;;;;;;262.10;137.70;;;;;;;-2.45;84.79;98032.10;86519;1284;22523;-71
2022/11/21 01:56:15;;;;;;;254.00;137.80;;;;;;;-2.44;84.97;98032.77;86449;1285;22472;-72
2022/11/21 01:58:19;;;;;;;268.10;135.50;;;;;;;-2.45;84.92;98035.89;86664;1278;99704;-72
2022/11/21 02:00:26;;;;;;;271.40;137.10;;;;;;;-2.47;84.83;98037.62;86243;1286;22456;-70
2022/11/21 02:02:31;;;;;;;255.30;134.40;;;;;;;-2.50;84.77;98034.21;86330;1286;23361;-72
2022/11/21 02:04:33;;;;;;;253.50;138.70;;;;;;;-2.51;84.84;98042.48;86273;1287;99568;-72
2022/11/21 02:06:36;;;;;;;252.50;138.10;;;;;;;-2.53;84.71;98041.46;86560;1285;23477;-71
2022/11/21 02:08:41;;;;;;;260.90;139.30;;;;;;;-2.57;84.72;98036.69;86235;1284;250568;-71
2022/11/21 02:10:52;;;;;;;249.40;130.80;;;;;;;-2.55;84.59;98044.08;86388;1286;99774;-71
2022/11/21 02:12:57;;;;;;;254.30;134.30;;;;;;;-2.54;84.64;98045.63;86510;1284;22490;-70
2022/11/21 02:14:58;;;;;;;254.30;134.80;;;;;;;-2.52;84.86;98046.98;86785;1286;22522;-71
2022/11/21 02:17:00;;;;;;;;;;;;;;;-2.50;84.83;98046.09;86173;1285;99508;-71
2022/11/21 02:19:02;;;;;;;266.20;139.20;;;;;;;-2.49;85.03;98038.84;86394;1292;22482;-70
2022/11/21 02:21:18;;;;;;;262.80;137.40;;;;;;;-2.48;84.90;98034.36;86475;1284;22472;-71
2022/11/21 02:23:36;;;;;;;251.60;134.40;;;;;;;-2.45;85.10;98033.64;86436;1289;99621;-72
2022/11/21 02:25:40;;;;;;;232.90;129.10;;;;;;;-2.45;84.90;98034.16;86560;1284;22601;-71
2022/11/21 02:27:41;;;;;;;237.30;125.00;;;;;;;-2.51;84.80;98022.36;86924;1284;22749;-70
2022/11/21 02:29:42;;;;;;;251.90;134.90;;;;;;;-2.47;84.94;98034.36;86396;1285;99467;-71
2022/11/21 02:31:43;;;;;;;249.40;132.80;;;;;;;-2.48;84.83;98034.20;86493;1289;22483;-70
2022/11/21 02:33:44;;;;;;;261.80;133.10;;;;;;;-2.50;84.97;98030.27;86364;1286;23512;-69
2022/11/21 02:35:58;;;;;;;250.90;130.00;;;;;;;-2.51;84.88;98029.40;86159;1288;99450;-71
2022/11/21 02:38:02;;;;;;;250.50;132.20;;;;;;;-2.50;84.69;98031.98;86369;1288;24280;-71
2022/11/21 02:40:08;;;;;;;258.40;136.30;;;;;;;-2.51;84.89;98030.63;86131;1286;100223;-70
2022/11/21 02:42:19;;;;;;;246.50;133.50;;;;;;;-2.53;84.83;98028.40;86441;1285;22637;-71
2022/11/21 02:44:56;;;;;;;255.20;134.90;;;;;;;-2.57;84.82;98029.64;86300;1291;25553;-69
2022/11/21 02:46:57;;;;;;;251.50;131.30;;;;;;;-2.62;84.96;98025.90;86251;1283;98434;-71
2022/11/21 02:48:58;;;;;;;249.90;134.20;;;;;;;-2.65;84.95;98020.61;86338;1283;26585;-71
2022/11/21 02:50:59;;;;;;;;;;;;;;;-2.64;84.94;98020.27;86420;1285;22533;-69
2022/11/21 02:53:01;;;;;;;263.60;137.30;;;;;;;-2.66;84.80;98020.98;86342;1286;84336;-72
2022/11/21 02:55:03;;;;;;;244.80;131.40;;;;;;;-2.69;84.97;98015.16;86692;1293;23533;-70
2022/11/21 02:57:04;;;;;;;253.80;135.50;;;;;;;-2.70;84.92;98015.70;86381;1286;22932;-70
2022/11/21 02:59:05;;;;;;;246.40;134.50;;;;;;;-2.72;84.94;98018.62;86100;1283;99754;-71
2022/11/21 03:01:06;;;;;;;256.90;135.40;;;;;;;-2.73;84.98;98013.47;86245;1287;25413;-71
2022/11/21 03:03:08;;;;;;;269.30;138.20;;;;;;;-2.74;84.97;98006.95;86248;1286;22510;-71
2022/11/21 03:05:10;;;;;;;247.30;133.70;;;;;;;-2.75;84.94;98007.65;86119;1289;99000;-71
2022/11/21 03:07:11;;;;;;;256.00;140.40;;;;;;;-2.76;84.80;98008.88;86863;1283;22615;-71
2022/11/21 03:09:12;;;;;;;259.90;132.60;;;;;;;-2.79;84.94;98011.31;86148;1286;25512;-70
2022/11/21 03:11:13;;;;;;;265.50;135.50;;;;;;;-2.84;84.92;98016.35;86185;1286;99661;-71
2022/11/21 03:13:14;;;;;;;252.10;134.10;;;;;;;-2.87;84.79;98014.66;86299;1287;24404;-70
2022/11/21 03:15:15;;;;;;;264.10;139.00;;;;;;;-2.89;84.89;98011.58;86179;1286;23509;-70
2022/11/21 03:17:16;;;;;;;251.00;131.30;;;;;;;-2.91;85.07;98014.18;86251;1283;100293;-71
2022/11/21 03:19:17;;;;;;;;;;;;;;;-2.95;84.99;98012.31;86198;1286;25934;-70
2022/11/21 03:21:18;;;;;;;248.50;130.40;;;;;;;-3.00;84.83;98007.74;86352;1283;22995;-70
2022/11/21 03:23:19;;;;;;;247.80;131.50;;;;;;;-3.04;84.89;98004.16;86295;1285;98593;-71
2022/11/21 03:25:23;;;;;;;255.20;135.70;;;;;;;-3.07;84.85;98002.29;86384;1283;25348;-70
2022/11/21 03:27:24;;;;;;;258.90;136.00;;;;;;;-3.10;85.04;97996.66;86176;1283;22508;-70
2022/11/21 03:29:25;;;;;;;255.20;129.30;;;;;;;-3.13;84.90;97995.48;86027;1286;102925;-72
2022/11/21 03:31:26;;;;;;;252.10;128.90;;;;;;;-3.14;84.89;97993.44;86137;1286;25369;-71
2022/11/21 03:33:27;;;;;;;253.50;134.10;;;;;;;-3.14;84.97;97991.04;86373;1283;23756;-71
2022/11/21 03:35:28;;;;;;;247.00;124.60;;;;;;;-3.14;84.99;97987.42;86152;1284;99671;-72
2022/11/21 03:37:29;;;;;;;245.70;124.20;;;;;;;-3.15;84.95;97984.68;86472;1286;22479;-70
2022/11/21 03:39:30;;;;;;;237.10;121.00;;;;;;;-3.15;85.12;97984.51;86370;1284;22746;-72
2022/11/21 03:41:31;;;;;;;239.40;118.70;;;;;;;-3.14;85.04;97981.58;86320;1284;99936;-72
2022/11/21 03:43:32;;;;;;;223.10;117.30;;;;;;;-3.15;84.98;97987.09;86332;1284;22497;-70
2022/11/21 03:45:33;;;;;;;221.80;119.20;;;;;;;-3.18;84.82;97980.76;86342;1284;23117;-71
2022/11/21 03:47:34;;;;;;;226.60;114.20;;;;;;;-3.21;84.73;97978.20;86236;1284;100394;-70
2022/11/21 03:49:35;;;;;;;224.80;115.50;;;;;;;-3.24;84.89;97970.33;86282;1288;23894;-71
2022/11/21 03:51:37;;;;;;;211.50;109.10;;;;;;;-3.28;84.72;97971.90;86530;1282;22590;-69
2022/11/21 03:53:38;;;;;;;219.80;113.30;;;;;;;-3.29;84.73;97966.23;86344;1285;100386;-70
2022/11/21 03:55:39;;;;;;;209.80;107.80;;;;;;;-3.33;84.66;97970.92;86527;1283;22504;-71
2022/11/21 03:57:40;;;;;;;210.80;111.20;;;;;;;-3.41;84.67;97970.64;86364;1278;22473;-69
2022/11/21 03:59:41;;;;;;;221.30;113.50;;;;;;;-3.47;84.46;97978.77;86323;1284;99806;-71
2022/11/21 04:01:42;;;;;;;232.00;117.90;;;;;;;-3.52;84.54;97983.80;86474;1284;24272;-70
2022/11/21 04:03:43;;;;;;;230.00;113.90;;;;;;;-3.56;84.47;97986.90;86369;1284;25444;-70
2022/11/21 04:05:44;;;;;;;218.40;109.10;;;;;;;-3.57;84.63;97982.97;86111;1286;99693;-71
2022/11/21 04:07:45;;;;;;;221.90;113.70;;;;;;;-3.57;84.78;97985.71;86247;1293;22457;-71
2022/11/21 04:09:46;;;;;;;230.40;113.90;;;;;;;-3.56;84.60;97983.47;86202;1284;22580;-70
2022/11/21 04:11:47;;;;;;;241.90;118.30;;;;;;;-3.55;84.71;97988.45;86407;1283;99493;-70
2022/11/21 04:13:52;;;;;;;216.50;112.00;;;;;;;-3.58;84.92;97985.04;86482;1284;25510;-71
2022/11/21 04:15:53;;;;;;;214.40;111.90;;;;;;;-3.54;84.94;97990.16;86487;1286;22463;-71
2022/11/21 04:17:53;;;;;;;220.10;116.90;;;;;;;-3.53;84.97;97994.45;86466;1283;98666;-71
2022/11/21 04:19:54;;;;;;;225.70;118.00;;;;;;;-3.56;84.80;97994.29;86493;1284;22588;-72
2022/11/21 04:21:55;;;;;;;230.70;116.70;;;;;;;-3.57;84.81;97993.27;86520;1295;24169;-70
2022/11/21 04:23:56;;;;;;;232.10;117.70;;;;;;;-3.57;84.69;97991.02;86157;1289;99287;-72
2022/11/21 04:25:57;;;;;;;219.80;118.30;;;;;;;-3.55;84.81;97988.11;86158;1288;24271;-70
2022/11/21 04:28:00;;;;;;;215.50;112.30;;;;;;;-3.55;84.98;97986.39;86237;1286;22481;-71
2022/11/21 04:30:02;;;;;;;223.60;114.00;;;;;;;-3.55;84.97;97989.31;86471;1284;22516;-72
2022/11/21 04:32:03;;;;;;;221.40;116.00;;;;;;;-3.57;84.72;97991.55;86423;1284;22838;-71
2022/11/21 04:34:04;;;;;;;234.50;118.80;;;;;;;-3.60;84.79;97989.86;86323;1284;99972;-71
2022/11/21 04:36:08;;;;;;;246.30;119.80;;;;;;;-3.60;84.75;97987.27;86577;1281;23441;-71
2022/11/21 04:38:10;;;;;;;244.80;119.80;;;;;;;-3.60;84.95;97984.52;86436;1277;22625;-70
2022/11/21 04:40:13;;;;;;;260.60;123.20;;;;;;;-3.59;84.98;97983.15;86358;1285;100683;-70
2022/11/21 04:42:14;;;;;;;249.50;125.30;;;;;;;-3.58;85.15;97978.35;86558;1285;22601;-71
2022/11/21 04:44:15;;;;;;;258.70;125.90;;;;;;;-3.56;84.93;97973.34;86549;1295;24168;-71
2022/11/21 04:46:17;;;;;;;266.40;126.40;;;;;;;-3.54;85.05;97967.84;86391;1284;100196;-71
2022/11/21 04:48:18;;;;;;;238.00;124.60;;;;;;;-3.52;84.97;97969.88;86518;1285;22557;-71
2022/11/21 04:50:19;;;;;;;252.80;124.00;;;;;;;-3.50;84.97;97971.23;86420;1284;22713;-69
2022/11/21 04:52:20;;;;;;;;;;;;;;;-3.49;84.99;97962.48;86406;1285;99387;-71
2022/11/21 04:54:21;;;;;;;239.90;115.80;;;;;;;-3.47;85.20;97964.86;86635;1286;22457;-71
2022/11/21 04:56:22;;;;;;;221.20;106.40;;;;;;;-3.44;84.97;97965.68;87139;1283;22465;-70
2022/11/21 04:58:23;;;;;;;207.60;101.40;;;;;;;-3.44;85.26;97959.86;87466;1282;98765;-71
2022/11/21 05:00:24;;;;;;;210.20;102.50;;;;;;;-3.43;85.07;97961.39;87544;1278;22506;-71
2022/11/21 05:02:24;;;;;;;226.20;105.10;;;;;;;-3.42;84.88;97956.22;87821;1307;22614;-73
2022/11/21 05:04:25;;;;;;;207.90;105.50;;;;;;;-3.42;85.02;97959.13;87322;1307;99138;-72
2022/11/21 05:06:26;;;;;;;221.70;106.40;;;;;;;-3.40;85.07;97955.02;87007;1284;25257;-72
2022/11/21 05:08:28;;;;;;;213.40;106.50;;;;;;;-3.41;84.92;97956.73;87029;1286;22565;-70
2022/11/21 05:10:29;;;;;;;217.00;108.30;;;;;;;-3.40;85.00;97957.08;86853;1288;98681;-71
2022/11/21 05:14:49;;;;;;;248.90;117.10;;;;;;;-3.36;85.17;97951.88;86751;1285;22492;-71
2022/11/21 05:16:51;;;;;;;239.50;113.70;;;;;;;-3.34;85.07;97946.02;86597;1286;98512;-72
2022/11/21 05:18:52;;;;;;;246.20;119.10;;;;;;;-3.32;85.10;97945.67;86233;1289;22509;-70
2022/11/21 05:20:56;;;;;;;245.60;117.20;;;;;;;-3.32;85.10;97945.83;86159;1283;25545;-70
2022/11/21 05:22:57;;;;;;;244.20;120.30;;;;;;;-3.30;85.16;97947.70;86509;1278;98756;-73
2022/11/21 05:24:58;;;;;;;225.40;110.20;;;;;;;-3.30;85.24;97945.81;86486;1285;22567;-71
2022/11/21 05:26:59;;;;;;;234.00;105.60;;;;;;;-3.29;85.12;97943.23;86408;1284;22652;-73
2022/11/21 05:29:00;;;;;;;235.50;105.70;;;;;;;-3.28;85.38;97936.70;86406;1284;99467;-73
2022/11/21 05:31:01;;;;;;;234.70;104.70;;;;;;;-3.26;85.13;97946.98;86443;1285;22708;-70
2022/11/21 05:33:03;;;;;;;242.80;114.60;;;;;;;-3.25;85.34;97944.56;86441;1284;22488;-69
2022/11/21 05:35:04;;;;;;;226.60;109.40;;;;;;;-3.24;85.25;97942.67;86487;1278;98394;-72
2022/11/21 05:37:05;;;;;;;230.30;109.70;;;;;;;-3.25;85.30;97938.73;86590;1294;22552;-70
2022/11/21 05:39:06;;;;;;;221.00;109.80;;;;;;;-3.26;85.20;97934.79;86536;1284;25339;-70
2022/11/21 05:41:07;;;;;;;238.40;112.20;;;;;;;-3.27;85.24;97930.67;86533;1285;99700;-70
2022/11/21 05:45:30;;;;;;;;;;;;;;;-3.27;85.23;97928.44;86482;1284;25341;-70
2022/11/21 05:47:31;;;;;;;223.50;109.40;;;;;;;-3.28;85.32;97927.08;86325;1284;84782;-70
2022/11/21 05:49:32;;;;;;;220.70;108.40;;;;;;;-3.27;85.34;97926.55;86433;1284;23916;-70
2022/11/21 05:51:33;;;;;;;213.40;106.50;;;;;;;-3.26;85.32;97924.47;86405;1278;22672;-71
2022/11/21 05:53:34;;;;;;;;;;;;;;;-3.28;85.12;97918.66;86341;1278;99585;-73
2022/11/21 05:55:35;;;;;;;217.40;104.90;;;;;;;-3.30;85.45;97920.55;86281;1285;25264;-69
2022/11/21 05:57:36;;;;;;;212.80;106.00;;;;;;;-3.32;84.93;97919.04;86479;1283;23040;-71
2022/11/21 05:59:37;;;;;;;219.10;106.80;;;;;;;-3.33;85.16;97914.58;86452;1284;99975;-70
2022/11/21 06:04:00;;;;;;;210.50;101.60;;;;;;;-3.31;85.30;97899.27;86516;1283;25296;-70
2022/11/21 06:06:05;;;;;;;215.50;105.30;;;;;;;-3.30;85.32;97894.10;86589;1285;99543;-72
2022/11/21 06:08:06;;;;;;;219.70;107.80;;;;;;;-3.30;85.32;97883.98;86582;1285;26487;-73
2022/11/21 06:10:07;;;;;;;206.30;102.50;;;;;;;-3.32;85.33;97884.02;86409;1291;99793;-70
2022/11/21 06:12:08;;;;;;;218.30;104.70;;;;;;;-3.33;85.35;97885.05;86324;1287;22532;-70
2022/11/21 06:14:09;;;;;;;213.00;106.10;;;;;;;-3.34;85.24;97887.61;86258;1280;22494;-72
2022/11/21 06:16:15;;;;;;;235.50;111.20;;;;;;;-3.34;85.36;97891.39;86174;1288;99735;-72
2022/11/21 06:18:16;;;;;;;217.00;104.70;;;;;;;-3.34;85.27;97889.50;86537;1285;22514;-72
2022/11/21 06:20:17;;;;;;;211.50;105.70;;;;;;;-3.34;85.47;97888.13;86566;1284;25775;-72
2022/11/21 06:22:21;;;;;;;227.60;110.80;;;;;;;-3.32;85.51;97891.56;86466;1284;100768;-72
2022/11/21 06:24:23;;;;;;;208.30;99.70;;;;;;;-3.31;85.38;97896.36;86515;1280;22819;-73
2022/11/21 06:26:27;;;;;;;221.80;102.80;;;;;;;-3.29;85.42;97901.66;86464;1286;24279;-72
2022/11/21 06:28:39;;;;;;;213.70;102.90;;;;;;;-3.28;85.49;97901.98;86545;1280;98457;-72
2022/11/21 06:30:40;;;;;;;194.20;96.70;;;;;;;-3.28;85.25;97902.67;86730;1277;22497;-70
2022/11/21 06:32:41;;;;;;;204.40;99.30;;;;;;;-3.29;85.46;97900.63;86339;1280;25411;-72
2022/11/21 06:34:42;;;;;;;193.40;100.40;;;;;;;-3.28;85.15;97901.83;86478;1286;98368;-73
2022/11/21 06:36:43;;;;;;;218.20;106.00;;;;;;;-3.31;85.34;97894.98;86329;1280;23947;-72
2022/11/21 06:38:45;;;;;;;;;;;;;;;-3.26;85.39;97904.55;86454;1286;23411;-72
2022/11/21 06:40:46;;;;;;;221.60;109.90;;;;;;;-3.26;85.37;97903.01;86519;1303;85893;-72
2022/11/21 06:42:47;;;;;;;231.00;116.20;;;;;;;-3.25;85.38;97905.90;86333;1279;22620;-71
2022/11/21 06:44:48;;;;;;;215.00;106.00;;;;;;;-3.24;85.55;97902.64;86556;1277;22478;-71
2022/11/21 06:46:49;;;;;;;222.70;111.70;;;;;;;-3.25;85.44;97894.74;86403;1285;99537;-72
2022/11/21 06:48:52;;;;;;;223.90;111.20;;;;;;;-3.30;85.30;97894.10;86425;1285;23418;-74
2022/11/21 06:50:53;;;;;;;219.20;109.70;;;;;;;-3.30;85.48;97897.88;86431;1287;26014;-73
2022/11/21 06:52:56;;;;;;;224.30;105.10;;;;;;;-3.28;85.55;97899.07;86283;1286;99652;-70
2022/11/21 06:54:58;;;;;;;210.90;103.40;;;;;;;-3.24;85.49;97905.40;86847;1280;22579;-71
2022/11/21 06:56:59;;;;;;;202.70;100.10;;;;;;;-3.20;85.61;97900.89;86213;1287;22486;-72
2022/11/21 06:59:01;;;;;;;203.90;99.80;;;;;;;-3.17;85.63;97899.81;86165;1285;100018;-71
2022/11/21 07:01:08;;;;;;;204.00;100.50;;;;;;;-3.13;85.76;97895.66;86468;1284;22501;-73
2022/11/21 07:03:09;;;;;;;212.00;98.90;;;;;;;-3.09;85.58;97888.40;86363;1287;26580;-73
2022/11/21 07:05:10;;;;;;;199.10;101.20;;;;;;;-3.05;85.61;97887.50;86347;1284;99444;-72
2022/11/21 07:07:11;;;;;;;201.80;101.60;;;;;;;-3.01;85.60;97889.67;86234;1283;22499;-73
2022/11/21 07:09:12;;;;;;;200.00;102.10;;;;;;;-2.97;85.82;97883.27;86379;1286;22484;-71
2022/11/21 07:11:13;;;;;;;195.30;98.00;;;;;;;-2.93;85.78;97883.23;85984;1287;99514;-71
2022/11/21 07:13:21;;;;;;;196.00;95.60;;;;;;;-2.89;85.71;97880.27;86259;1290;23286;-72
2022/11/21 07:15:22;;;;;;;198.40;93.20;;;;;;;-2.85;85.57;97885.36;86040;1286;25604;-72
2022/11/21 07:17:23;;;;;;;197.00;95.10;;;;;;;-2.83;85.87;97880.36;86231;1290;99550;-72
2022/11/21 07:19:24;;;;;;;202.80;98.20;;;;;;;-2.79;85.89;97883.58;86131;1296;22513;-72
2022/11/21 07:21:25;;;;;;;;;;;;;;;-2.75;85.80;97879.58;86321;1286;25370;-72
2022/11/21 07:23:28;;;;;;;187.90;93.10;;;;;;;-2.71;85.85;97882.96;86388;1280;85280;-72
2022/11/21 07:25:29;;;;;;;185.20;96.20;;;;;;;-2.66;86.03;97882.90;86263;1287;24283;-72
2022/11/21 07:27:30;;;;;;;199.30;93.30;;;;;;;-2.61;86.14;97885.59;86271;1286;22573;-72
2022/11/21 07:29:30;;;;;;;207.60;96.20;;;;;;;-2.55;86.03;97882.23;86122;1287;99997;-72
2022/11/21 07:31:31;;;;;;;197.30;99.20;;;;;;;-2.49;85.95;97877.86;86221;1286;23126;-71
2022/11/21 07:33:32;;;;;;;193.40;95.90;;;;;;;-2.43;85.99;97874.68;86209;1295;23644;-71
2022/11/21 07:35:35;;;;;;;199.20;94.50;;;;;;;-2.38;86.04;97870.31;86356;1287;99395;-71
2022/11/21 07:37:38;;;;;;;182.50;89.30;;;;;;;-2.31;86.05;97871.23;86396;1287;22494;-71
2022/11/21 07:39:39;;;;;;;182.50;92.70;;;;;;;-2.24;86.06;97864.95;86453;1309;22488;-73
2022/11/21 07:41:40;;;;;;;180.50;90.90;;;;;;;-2.16;86.18;97865.34;86378;1283;99481;-72
2022/11/21 07:43:41;;;;;;;174.50;87.60;;;;;;;-2.09;86.14;97865.77;86197;1296;22525;-72
2022/11/21 07:45:42;;;;;;;;;;;;;;;-2.01;86.25;97865.12;86459;1285;22601;-71
2022/11/21 07:47:43;;;;;;;185.20;91.50;;;;;;;-1.94;86.22;97866.39;86259;1293;84359;-72
2022/11/21 07:49:44;;;;;;;;;;;;;;;-1.85;86.34;97865.55;86312;1296;24411;-73
2022/11/21 07:51:45;;;;;;;189.40;94.40;;;;;;;-1.76;86.38;97865.58;86502;1286;23380;-73
2022/11/21 07:53:46;;;;;;;184.10;94.80;;;;;;;-1.68;86.41;97860.44;86247;1286;99800;-73
2022/11/21 07:55:47;;;;;;;197.10;97.00;;;;;;;-1.59;86.38;97856.66;86316;1280;22490;-72
2022/11/21 07:58:06;;;;;;;191.40;98.30;;;;;;;-1.50;86.38;97854.79;86499;1284;26654;-73
2022/11/21 08:00:08;;;;;;;193.10;96.20;;;;;;;-1.40;86.38;97850.30;86514;1285;22624;-75
2022/11/21 08:02:22;;;;;;;197.30;97.40;;;;;;;-1.32;86.25;97845.17;86818;1288;22642;-72
2022/11/21 08:04:23;;;;;;;193.90;95.80;;;;;;;-1.23;86.46;97841.38;88028;1284;100116;-73
2022/11/21 08:06:25;;;;;;;202.50;98.40;;;;;;;-1.14;86.43;97842.59;88163;1292;22528;-73
2022/11/21 08:08:27;;;;;;;181.50;92.50;;;;;;;-1.06;86.43;97838.97;87908;1289;22476;-74
2022/11/21 08:10:27;;;;;;;183.50;91.10;;;;;;;-1.00;86.49;97828.86;88087;1293;98558;-73
2022/11/21 08:12:31;;;;;;;159.30;84.70;;;;;;;-0.85;86.50;97833.20;86888;1310;22512;-72
2022/11/21 08:14:33;;;;;;;171.00;87.70;;;;;;;-0.73;86.51;97829.67;86665;1284;23640;-72
2022/11/21 08:16:34;;;;;;;171.70;91.80;;;;;;;-0.61;86.51;97829.25;86218;1287;99550;-72
2022/11/21 08:18:35;;;;;;;170.40;87.00;;;;;;;-0.50;86.44;97832.99;86290;1288;22643;-71
2022/11/21 08:20:36;;;;;;;152.60;80.50;;;;;;;-0.40;86.56;97836.39;86343;1310;22994;-74
2022/11/21 08:22:38;;;;;;;;;;;;;;;-0.29;86.60;97834.40;87010;1287;99479;-74
2022/11/21 08:24:39;;;;;;;144.70;76.90;;;;;;;-0.23;86.71;97826.48;87063;1285;24335;-72
2022/11/21 08:26:40;;;;;;;143.70;75.40;;;;;;;-0.10;86.56;97831.58;86283;1282;24308;-73
2022/11/21 08:28:41;;;;;;;140.90;74.00;;;;;;;-0.11;86.51;97814.81;86122;1287;98698;-73
2022/11/21 08:30:43;;;;;;;143.60;73.20;;;;;;;0.03;86.29;97824.67;86261;1280;22491;-73
2022/11/21 08:32:44;;;;;;;133.30;72.70;;;;;;;0.11;86.47;97825.17;86248;1283;22469;-73
2022/11/21 08:34:45;;;;;;;136.20;73.00;;;;;;;0.17;86.50;97828.30;86129;1286;99329;-72
2022/11/21 08:36:46;;;;;;;135.80;68.60;;;;;;;0.24;86.53;97826.42;86317;1283;25678;-73
2022/11/21 08:38:47;;;;;;;135.30;68.80;;;;;;;0.28;86.42;97827.16;86223;1281;26593;-71
2022/11/21 08:42:01;;;;;;;136.40;69.80;;;;;;;0.33;86.44;97824.45;86036;1286;99553;-73
2022/11/21 08:43:09;;;;;;;134.80;70.50;;;;;;;0.37;86.52;97819.84;86190;1283;24256;-72
2022/11/21 08:45:10;;;;;;;126.70;67.60;;;;;;;0.41;86.42;97813.53;86060;1286;23838;-72
2022/11/21 08:47:11;;;;;;;118.10;69.90;;;;;;;0.44;86.22;97808.27;86030;1287;98070;-74
2022/11/21 08:49:12;;;;;;;120.90;66.40;;;;;;;0.47;86.37;97808.85;86144;1280;24141;-72
2022/11/21 08:51:13;;;;;;;116.70;64.50;;;;;;;0.53;86.15;97808.21;86288;1281;22494;-72
2022/11/21 08:53:14;;;;;;;121.90;66.70;;;;;;;0.59;86.19;97808.73;86189;1285;98490;-74
2022/11/21 08:55:15;;;;;;;117.10;62.80;;;;;;;0.62;86.42;97809.17;86117;1290;25510;-74
2022/11/21 08:57:16;;;;;;;111.70;62.60;;;;;;;0.65;86.22;97811.01;86316;1284;22478;-74
2022/11/21 08:59:17;;;;;;;112.40;61.30;;;;;;;0.67;86.18;97815.43;86316;1283;99731;-71
2022/11/21 09:01:18;;;;;;;118.30;61.10;;;;;;;0.73;86.12;97813.23;86332;1293;23114;-73
2022/11/21 09:03:19;;;;;;;97.60;57.40;;;;;;;0.79;86.38;97812.87;86190;1290;22524;-74
2022/11/21 09:05:20;;;;;;;106.80;57.60;;;;;;;0.87;86.30;97815.59;86123;1278;98071;-74
2022/11/21 09:07:21;;;;;;;110.80;59.40;;;;;;;0.98;86.47;97815.46;85987;1279;22534;-73
2022/11/21 09:09:22;;;;;;;105.80;57.70;;;;;;;1.07;86.60;97816.73;86275;1286;22524;-73
2022/11/21 09:11:24;;;;;;;117.90;61.50;;;;;;;1.15;86.30;97816.88;86132;1280;99386;-73
2022/11/21 09:13:24;;;;;;;;;;;;;;;1.18;86.26;97821.80;86392;1286;24262;-77
2022/11/21 09:18:04;;;;;;;103.30;58.80;;;;;;;1.29;86.22;97821.33;86704;1297;98489;-80
2022/11/21 09:20:05;;;;;;;111.50;59.60;;;;;;;1.35;86.03;97817.83;86676;1287;24431;-78
2022/11/21 09:22:06;;;;;;;;;;;;;;;1.40;85.93;97821.48;86574;1311;99563;-76
2022/11/21 09:24:07;;;;;;;117.70;59.00;;;;;;;1.42;86.11;97821.60;86691;1287;22540;-77